Terminal Aerodrome Forecast
Issued by NWS

Home | Current Version | Previous Version | Text Only | Print | Product List | Glossary On
Versions: 1 2 3 4 5 6 7 8 9 10 11 12 13 14 15 16 17 18 19 20 21 22 23 24
000
FTUS43 KMKX 171728
TAFENW
TAF
KENW 171728Z 1718/1818 24013G22KT P6SM SKC
     FM172300 23010KT P6SM SKC
     FM180200 22007KT P6SM SKC WS020/23030KT
     FM181500 21012G23KT P6SM SKC=

USA.gov is the U.S. government's official web portal to all federal, state and local government web resources and services.